createdAt,value
2016-02-21T00:00:03.302Z,0
2016-02-21T00:01:03.322Z,0
2016-02-21T00:02:03.262Z,0
2016-02-21T00:03:03.281Z,0
2016-02-21T00:04:03.221Z,0
2016-02-21T00:05:03.239Z,0
2016-02-21T00:06:03.164Z,0
2016-02-21T00:07:03.166Z,0
2016-02-21T00:08:03.138Z,0
2016-02-21T00:09:03.109Z,0
2016-02-21T00:10:03.081Z,0
2016-02-21T00:11:03.068Z,0
2016-02-21T00:12:03.040Z,0
2016-02-21T00:13:03.010Z,0
2016-02-21T00:14:02.982Z,0
2016-02-21T00:15:02.984Z,0
2016-02-21T00:16:03.003Z,0
2016-02-21T00:17:02.896Z,0
2016-02-21T00:18:02.899Z,0
2016-02-21T00:19:02.871Z,0
2016-02-21T00:20:02.826Z,0
2016-02-21T00:21:02.845Z,0
2016-02-21T00:22:02.784Z,0
2016-02-21T00:23:02.772Z,0
2016-02-21T00:24:02.728Z,0
2016-02-21T00:25:02.714Z,0
2016-02-21T00:26:02.687Z,0
2016-02-21T00:27:02.908Z,0
2016-02-21T00:28:02.630Z,0
2016-02-21T00:29:02.632Z,0
2016-02-21T00:30:02.603Z,0
2016-02-21T00:31:02.575Z,0
2016-02-21T00:32:02.672Z,0
2016-02-21T00:33:02.502Z,0
2016-02-21T00:34:02.505Z,0
2016-02-21T00:35:02.461Z,0
2016-02-21T00:36:02.432Z,0
2016-02-21T00:37:02.403Z,0
2016-02-21T00:38:02.437Z,0
2016-02-21T00:39:02.378Z,0
2016-02-21T00:40:02.349Z,0
2016-02-21T00:41:02.320Z,0
2016-02-21T00:42:02.276Z,0
2016-02-21T00:43:02.262Z,0
2016-02-21T00:44:02.235Z,0
2016-02-21T00:45:02.222Z,0
2016-02-21T00:46:02.209Z,0
2016-02-21T00:47:02.196Z,0
2016-02-21T00:48:02.167Z,0
2016-02-21T00:49:02.139Z,0
2016-02-21T00:50:02.156Z,0
2016-02-21T00:51:02.112Z,0
2016-02-21T00:52:02.054Z,0
2016-02-21T00:53:02.040Z,0
2016-02-21T00:54:01.981Z,0
2016-02-21T00:55:01.967Z,0
2016-02-21T00:56:01.969Z,0
2016-02-21T00:57:01.926Z,0
2016-02-21T00:58:01.914Z,0
2016-02-21T00:59:01.884Z,0
2016-02-21T01:00:02.044Z,0
2016-02-21T01:01:01.828Z,0
2016-02-21T01:02:01.814Z,0
2016-02-21T01:03:01.783Z,0
2016-02-21T01:04:01.769Z,0
2016-02-21T01:05:01.726Z,0
2016-02-21T01:06:01.714Z,0
2016-02-21T01:07:01.700Z,0
2016-02-21T01:08:01.656Z,0
2016-02-21T01:09:01.643Z,0
2016-02-21T01:10:01.615Z,0
2016-02-21T01:11:01.602Z,0
2016-02-21T01:12:01.573Z,0
2016-02-21T01:13:01.762Z,0
2016-02-21T01:14:01.532Z,0
2016-02-21T01:15:01.487Z,0
2016-02-21T01:16:01.459Z,0
2016-02-21T01:17:01.429Z,0
2016-02-21T01:18:01.479Z,0
2016-02-21T01:19:01.390Z,0
2016-02-21T01:20:01.376Z,0
2016-02-21T01:21:01.332Z,0
2016-02-21T01:22:01.318Z,0
2016-02-21T01:23:01.306Z,0
2016-02-21T01:24:01.261Z,0
2016-02-21T01:25:01.265Z,0
2016-02-21T01:26:01.220Z,0
2016-02-21T01:27:01.192Z,0
2016-02-21T01:28:01.179Z,0
2016-02-21T01:29:01.400Z,0
2016-02-21T01:30:01.136Z,0
2016-02-21T01:31:01.092Z,0
2016-02-21T01:32:01.064Z,0
2016-02-21T01:33:01.067Z,0
2016-02-21T01:34:01.022Z,0
2016-02-21T01:35:01.041Z,0
2016-02-21T01:36:00.981Z,0
2016-02-21T01:37:00.983Z,0
2016-02-21T01:38:00.924Z,0
2016-02-21T01:39:00.895Z,0
2016-02-21T01:40:00.867Z,0
2016-02-21T01:41:00.869Z,0
2016-02-21T01:42:00.826Z,0
2016-02-21T01:43:00.828Z,0
2016-02-21T01:44:00.784Z,0
2016-02-21T01:45:00.787Z,0
2016-02-21T01:46:00.743Z,0
2016-02-21T01:47:00.730Z,0
2016-02-21T01:48:00.670Z,0
2016-02-21T01:49:00.704Z,0
2016-02-21T01:50:00.628Z,0
2016-02-21T01:51:00.615Z,0
2016-02-21T01:52:00.586Z,0
2016-02-21T01:53:00.574Z,0
2016-02-21T01:54:00.562Z,0
2016-02-21T01:55:00.517Z,0
2016-02-21T01:56:00.489Z,0
2016-02-21T01:57:00.459Z,0
2016-02-21T01:58:00.431Z,0
2016-02-21T01:59:00.449Z,0
2016-02-21T02:00:00.390Z,0
2016-02-21T02:01:00.392Z,0
2016-02-21T02:02:00.333Z,0
2016-02-21T02:03:00.319Z,0
2016-02-21T02:04:00.291Z,0
2016-02-21T02:05:00.277Z,0
2016-02-21T02:06:00.266Z,0
2016-02-21T02:07:00.237Z,0
2016-02-21T02:08:00.208Z,0
2016-02-21T02:09:00.195Z,0
2016-02-21T02:10:00.432Z,0
2016-02-21T02:11:00.122Z,0
2016-02-21T02:12:00.124Z,0
2016-02-21T02:13:00.065Z,0
2016-02-21T02:14:00.052Z,0
2016-02-21T02:15:00.258Z,0
2016-02-21T02:16:00.011Z,0
2016-02-21T02:16:59.982Z,0
2016-02-21T02:17:59.953Z,0
2016-02-21T02:18:59.941Z,0
2016-02-21T02:19:59.928Z,0
2016-02-21T02:20:59.868Z,0
2016-02-21T02:21:59.871Z,0
2016-02-21T02:22:59.826Z,0
2016-02-21T02:23:59.814Z,0
2016-02-21T02:24:59.816Z,0
2016-02-21T02:26:00.022Z,0
2016-02-21T02:26:59.743Z,0
2016-02-21T02:27:59.715Z,0
2016-02-21T02:28:59.687Z,0
2016-02-21T02:29:59.705Z,0
2016-02-21T02:30:59.629Z,0
2016-02-21T02:31:59.617Z,0
2016-02-21T02:32:59.588Z,0
2016-02-21T02:33:59.591Z,0
2016-02-21T02:34:59.547Z,0
2016-02-21T02:35:59.533Z,0
2016-02-21T02:36:59.520Z,0
2016-02-21T02:37:59.461Z,0
2016-02-21T02:38:59.447Z,0
2016-02-21T02:39:59.435Z,0
2016-02-21T02:40:59.391Z,0
2016-02-21T02:41:59.409Z,0
2016-02-21T02:42:59.333Z,0
2016-02-21T02:43:59.321Z,0
2016-02-21T02:44:59.323Z,0
2016-02-21T02:45:59.279Z,0
2016-02-21T02:46:59.390Z,0
2016-02-21T02:47:59.238Z,0
2016-02-21T02:48:59.240Z,0
2016-02-21T02:49:59.180Z,0
2016-02-21T02:50:59.152Z,0
2016-02-21T02:51:59.163Z,0
2016-02-21T02:52:59.094Z,0
2016-02-21T02:53:59.056Z,0
2016-02-21T02:54:59.018Z,0
2016-02-21T02:55:58.981Z,0
2016-02-21T02:56:58.961Z,0
2016-02-21T02:57:58.929Z,0
2016-02-21T02:58:58.929Z,0
2016-02-21T02:59:58.881Z,0
2016-02-21T03:00:58.850Z,0
2016-02-21T03:01:58.818Z,0
2016-02-21T03:02:58.804Z,0
2016-02-21T03:03:58.758Z,0
2016-02-21T03:04:58.759Z,0
2016-02-21T03:05:58.713Z,0
2016-02-21T03:06:58.684Z,0
2016-02-21T03:07:58.670Z,0
2016-02-21T03:08:58.657Z,0
2016-02-21T03:09:58.489Z,0
2016-02-21T03:10:58.584Z,0
2016-02-21T03:11:58.805Z,0
2016-02-21T03:12:58.558Z,0
2016-02-21T03:13:58.514Z,0
2016-02-21T03:14:58.517Z,0
2016-02-21T03:15:58.472Z,0
2016-02-21T03:16:58.507Z,0
2016-02-21T03:17:58.430Z,0
2016-02-21T03:18:58.418Z,0
2016-02-21T03:19:58.373Z,0
2016-02-21T03:20:58.360Z,0
2016-02-21T03:21:58.363Z,0
2016-02-21T03:22:58.304Z,0
2016-02-21T03:23:58.276Z,0
2016-02-21T03:24:58.246Z,0
2016-02-21T03:25:58.234Z,0
2016-02-21T03:26:58.221Z,0
2016-02-21T03:27:58.192Z,0
2016-02-21T03:28:58.023Z,0
2016-02-21T03:29:58.151Z,0
2016-02-21T03:30:58.138Z,0
2016-02-21T03:31:58.093Z,0
2016-02-21T03:32:58.065Z,0
2016-02-21T03:33:58.130Z,0
2016-02-21T03:34:58.023Z,0
2016-02-21T03:35:58.010Z,0
2016-02-21T03:36:57.981Z,0
2016-02-21T03:37:57.984Z,0
2016-02-21T03:38:57.925Z,0
2016-02-21T03:39:57.912Z,0
2016-02-21T03:40:57.867Z,0
2016-02-21T03:41:57.838Z,0
2016-02-21T03:42:57.811Z,0
2016-02-21T03:43:57.783Z,0
2016-02-21T03:44:57.769Z,0
2016-02-21T03:45:57.772Z,0
2016-02-21T03:46:57.744Z,0
2016-02-21T03:47:57.715Z,0
2016-02-21T03:48:57.686Z,0
2016-02-21T03:49:57.673Z,0
2016-02-21T03:50:57.645Z,0
2016-02-21T03:51:57.616Z,0
2016-02-21T03:52:57.572Z,0
2016-02-21T03:53:57.559Z,0
2016-02-21T03:54:57.530Z,0
2016-02-21T03:55:57.502Z,0
2016-02-21T03:56:57.473Z,0
2016-02-21T03:57:57.459Z,0
2016-02-21T03:58:57.463Z,0
2016-02-21T03:59:57.419Z,0
2016-02-21T04:00:57.390Z,0
2016-02-21T04:01:57.377Z,0
2016-02-21T04:02:57.348Z,0
2016-02-21T04:03:57.321Z,0
2016-02-21T04:04:57.307Z,0
2016-02-21T04:05:57.279Z,0
2016-02-21T04:06:57.234Z,0
2016-02-21T04:07:57.206Z,0
2016-02-21T04:08:57.442Z,0
2016-02-21T04:09:57.164Z,0
2016-02-21T04:10:57.151Z,0
2016-02-21T04:11:57.107Z,0
2016-02-21T04:12:57.095Z,0
2016-02-21T04:13:57.285Z,0
2016-02-21T04:14:57.053Z,0
2016-02-21T04:15:57.024Z,0
2016-02-21T04:16:56.996Z,0
2016-02-21T04:17:57.124Z,0
2016-02-21T04:18:56.955Z,0
2016-02-21T04:19:56.786Z,0
2016-02-21T04:20:56.929Z,0
2016-02-21T04:21:56.885Z,0
2016-02-21T04:22:56.855Z,0
2016-02-21T04:23:56.812Z,0
2016-02-21T04:24:56.799Z,0
2016-02-21T04:25:56.770Z,0
2016-02-21T04:26:56.757Z,0
2016-02-21T04:27:56.744Z,0
2016-02-21T04:28:56.560Z,0
2016-02-21T04:29:56.687Z,0
2016-02-21T04:30:56.658Z,0
2016-02-21T04:31:56.629Z,0
2016-02-21T04:32:56.602Z,0
2016-02-21T04:33:56.573Z,0
2016-02-21T04:34:56.560Z,0
2016-02-21T04:35:56.531Z,0
2016-02-21T04:36:56.503Z,0
2016-02-21T04:37:56.505Z,0
2016-02-21T04:38:56.462Z,0
2016-02-21T04:39:56.447Z,0
2016-02-21T04:40:56.420Z,0
2016-02-21T04:41:56.391Z,0
2016-02-21T04:42:56.363Z,0
2016-02-21T04:43:56.333Z,0
2016-02-21T04:44:56.321Z,0
2016-02-21T04:45:56.277Z,0
2016-02-21T04:46:56.280Z,0
2016-02-21T04:47:56.252Z,0
2016-02-21T04:48:56.254Z,0
2016-02-21T04:49:56.194Z,0
2016-02-21T04:50:56.165Z,0
2016-02-21T04:51:56.137Z,0
2016-02-21T04:52:56.123Z,0
2016-02-21T04:53:56.095Z,0
2016-02-21T04:54:56.067Z,0
2016-02-21T04:55:56.069Z,0
2016-02-21T04:56:56.026Z,0
2016-02-21T04:57:56.012Z,0
2016-02-21T04:58:55.999Z,0
2016-02-21T04:59:56.033Z,0
2016-02-21T05:00:55.911Z,0
2016-02-21T05:01:55.914Z,0
2016-02-21T05:02:55.885Z,0
2016-02-21T05:03:55.856Z,0
2016-02-21T05:04:55.843Z,0
2016-02-21T05:05:55.815Z,0
2016-02-21T05:06:55.786Z,0
2016-02-21T05:07:55.758Z,0
2016-02-21T05:08:55.714Z,0
2016-02-21T05:09:55.732Z,0
2016-02-21T05:10:55.922Z,0
2016-02-21T05:11:55.659Z,0
2016-02-21T05:12:55.661Z,0
2016-02-21T05:13:55.617Z,0
2016-02-21T05:14:55.590Z,0
2016-02-21T05:15:55.608Z,0
2016-02-21T05:16:55.517Z,0
2016-02-21T05:17:55.519Z,0
2016-02-21T05:18:55.475Z,0
2016-02-21T05:19:55.477Z,0
2016-02-21T05:20:55.433Z,0
2016-02-21T05:21:55.404Z,0
2016-02-21T05:22:55.424Z,0
2016-02-21T05:23:55.364Z,0
2016-02-21T05:24:55.335Z,0
2016-02-21T05:25:55.321Z,0
2016-02-21T05:26:55.293Z,0
2016-02-21T05:27:55.296Z,0
2016-02-21T05:28:55.237Z,0
2016-02-21T05:29:55.239Z,0
2016-02-21T05:30:55.243Z,0
2016-02-21T05:31:55.151Z,0
2016-02-21T05:32:55.154Z,0
2016-02-21T05:33:55.109Z,0
2016-02-21T05:34:55.080Z,0
2016-02-21T05:35:55.068Z,0
2016-02-21T05:36:55.055Z,0
2016-02-21T05:37:55.026Z,0
2016-02-21T05:38:54.998Z,0
2016-02-21T05:39:55.000Z,0
2016-02-21T05:40:54.940Z,0
2016-02-21T05:41:54.911Z,0
2016-02-21T05:42:54.899Z,0
2016-02-21T05:43:54.887Z,0
2016-02-21T05:44:54.889Z,0
2016-02-21T05:45:54.829Z,0
2016-02-21T05:46:54.785Z,0
2016-02-21T05:47:54.802Z,0
2016-02-21T05:48:54.758Z,0
2016-02-21T05:49:54.746Z,0
2016-02-21T05:50:54.717Z,0
2016-02-21T05:51:54.705Z,0
2016-02-21T05:52:54.645Z,0
2016-02-21T05:53:54.616Z,0
2016-02-21T05:54:54.618Z,0
2016-02-21T05:55:54.574Z,0
2016-02-21T05:56:54.733Z,0
2016-02-21T05:57:54.549Z,0
2016-02-21T05:58:54.521Z,0
2016-02-21T05:59:54.507Z,0
2016-02-21T06:00:54.448Z,0
2016-02-21T06:01:54.434Z,0
2016-02-21T06:02:54.454Z,0
2016-02-21T06:03:54.392Z,0
2016-02-21T06:04:54.380Z,0
2016-02-21T06:05:54.180Z,0
2016-02-21T06:06:54.323Z,0
2016-02-21T06:07:54.279Z,0
2016-02-21T06:08:54.250Z,0
2016-02-21T06:09:54.253Z,0
2016-02-21T06:10:54.224Z,0
2016-02-21T06:11:54.195Z,0
2016-02-21T06:12:54.339Z,0
2016-02-21T06:13:54.139Z,0
2016-02-21T06:14:54.126Z,0
2016-02-21T06:15:54.097Z,0
2016-02-21T06:16:54.084Z,0
2016-02-21T06:17:54.025Z,0
2016-02-21T06:18:54.028Z,0
2016-02-21T06:19:53.999Z,0
2016-02-21T06:20:53.970Z,0
2016-02-21T06:21:53.958Z,0
2016-02-21T06:22:53.772Z,4
2016-02-21T06:23:53.916Z,4
2016-02-21T06:24:53.871Z,4
2016-02-21T06:25:53.858Z,4
2016-02-21T06:26:53.830Z,8
2016-02-21T06:27:53.802Z,4
2016-02-21T06:28:53.788Z,4
2016-02-21T06:29:53.744Z,8
2016-02-21T06:30:53.731Z,4
2016-02-21T06:31:53.765Z,4
2016-02-21T06:32:53.673Z,8
2016-02-21T06:33:53.646Z,8
2016-02-21T06:34:53.633Z,8
2016-02-21T06:35:53.604Z,8
2016-02-21T06:36:53.591Z,12
2016-02-21T06:37:53.593Z,12
2016-02-21T06:38:53.518Z,16
2016-02-21T06:39:53.505Z,12
2016-02-21T06:40:53.461Z,16
2016-02-21T06:41:53.464Z,16
2016-02-21T06:42:53.451Z,20
2016-02-21T06:43:53.407Z,20
2016-02-21T06:44:53.394Z,20
2016-02-21T06:45:53.396Z,24
2016-02-21T06:46:53.336Z,32
2016-02-21T06:47:53.340Z,32
2016-02-21T06:48:53.280Z,28
2016-02-21T06:49:53.267Z,40
2016-02-21T06:50:53.253Z,44
2016-02-21T06:51:53.256Z,52
2016-02-21T06:52:53.180Z,60
2016-02-21T06:53:53.136Z,52
2016-02-21T06:54:53.187Z,64
2016-02-21T06:55:53.111Z,56
2016-02-21T06:56:53.099Z,56
2016-02-21T06:57:53.085Z,64
2016-02-21T06:58:52.979Z,56
2016-02-21T06:59:53.027Z,60
2016-02-21T07:00:52.999Z,60
2016-02-21T07:01:52.971Z,68
2016-02-21T07:02:52.943Z,80
2016-02-21T07:03:52.913Z,96
2016-02-21T07:04:52.745Z,92
2016-02-21T07:05:52.888Z,104
2016-02-21T07:06:52.859Z,100
2016-02-21T07:07:52.831Z,100
2016-02-21T07:08:52.787Z,100
2016-02-21T07:09:52.914Z,120
2016-02-21T07:10:52.761Z,112
2016-02-21T07:11:52.732Z,104
2016-02-21T07:12:52.719Z,104
2016-02-21T07:13:52.675Z,128
2016-02-21T07:14:52.678Z,112
2016-02-21T07:15:52.633Z,128
2016-02-21T07:16:52.589Z,148
2016-02-21T07:17:52.592Z,148
2016-02-21T07:18:52.564Z,140
2016-02-21T07:19:52.566Z,148
2016-02-21T07:20:52.506Z,164
2016-02-21T07:21:52.509Z,172
2016-02-21T07:22:52.511Z,172
2016-02-21T07:23:52.421Z,152
2016-02-21T07:24:52.517Z,160
2016-02-21T07:25:52.379Z,176
2016-02-21T07:26:52.351Z,196
2016-02-21T07:27:52.353Z,184
2016-02-21T07:28:52.309Z,268
2016-02-21T07:29:52.296Z,296
2016-02-21T07:30:52.329Z,244
2016-02-21T07:31:52.239Z,240
2016-02-21T07:32:52.242Z,216
2016-02-21T07:33:52.198Z,228
2016-02-21T07:34:52.184Z,220
2016-02-21T07:35:52.140Z,264
2016-02-21T07:36:52.174Z,300
2016-02-21T07:37:52.084Z,304
2016-02-21T07:38:52.071Z,312
2016-02-21T07:39:52.058Z,404
2016-02-21T07:40:52.013Z,392
2016-02-21T07:41:52.016Z,352
2016-02-21T07:42:52.003Z,320
2016-02-21T07:43:51.959Z,264
2016-02-21T07:44:51.945Z,260
2016-02-21T07:45:51.902Z,284
2016-02-21T07:46:51.889Z,288
2016-02-21T07:47:51.845Z,280
2016-02-21T07:48:51.816Z,328
2016-02-21T07:49:51.803Z,340
2016-02-21T07:50:52.102Z,332
2016-02-21T07:51:51.761Z,312
2016-02-21T07:52:51.750Z,336
2016-02-21T07:53:51.736Z,396
2016-02-21T07:54:51.692Z,472
2016-02-21T07:55:51.772Z,540
2016-02-21T07:56:51.666Z,572
2016-02-21T07:57:51.621Z,572
2016-02-21T07:58:51.625Z,496
2016-02-21T07:59:51.580Z,632
2016-02-21T08:00:51.552Z,572
2016-02-21T08:01:51.539Z,608
2016-02-21T08:02:51.510Z,496
2016-02-21T08:03:51.466Z,440
2016-02-21T08:04:51.453Z,456
2016-02-21T08:05:51.455Z,552
2016-02-21T08:06:51.568Z,536
2016-02-21T08:07:51.383Z,524
2016-02-21T08:08:51.355Z,576
2016-02-21T08:09:51.326Z,544
2016-02-21T08:10:51.298Z,572
2016-02-21T08:11:51.285Z,604
2016-02-21T08:12:51.256Z,556
2016-02-21T08:13:51.243Z,568
2016-02-21T08:14:51.215Z,416
2016-02-21T08:15:51.186Z,408
2016-02-21T08:16:51.157Z,452
2016-02-21T08:17:51.160Z,504
2016-02-21T08:18:51.100Z,404
2016-02-21T08:19:51.072Z,432
2016-02-21T08:20:51.058Z,428
2016-02-21T08:21:51.031Z,592
2016-02-21T08:22:51.017Z,528
2016-02-21T08:23:51.020Z,600
2016-02-21T08:24:51.006Z,520
2016-02-21T08:25:50.947Z,464
2016-02-21T08:26:50.933Z,524
2016-02-21T08:27:50.889Z,636
2016-02-21T08:28:50.861Z,700
2016-02-21T08:29:50.864Z,676
2016-02-21T08:30:50.836Z,708
2016-02-21T08:31:50.791Z,720
2016-02-21T08:32:50.794Z,704
2016-02-21T08:33:50.749Z,616
2016-02-21T08:34:50.722Z,720
2016-02-21T08:35:50.723Z,768
2016-02-21T08:36:50.696Z,628
2016-02-21T08:37:50.651Z,560
2016-02-21T08:38:50.654Z,608
2016-02-21T08:39:50.609Z,620
2016-02-21T08:40:50.581Z,544
2016-02-21T08:41:50.599Z,500
2016-02-21T08:42:50.554Z,468
2016-02-21T08:43:50.527Z,500
2016-02-21T08:44:50.529Z,484
2016-02-21T08:45:50.454Z,516
2016-02-21T08:46:50.456Z,556
2016-02-21T08:47:50.693Z,512
2016-02-21T08:48:50.384Z,464
2016-02-21T08:49:50.370Z,484
2016-02-21T08:50:50.187Z,452
2016-02-21T08:51:50.329Z,424
2016-02-21T08:52:50.411Z,416
2016-02-21T08:53:50.288Z,476
2016-02-21T08:54:50.259Z,460
2016-02-21T08:55:50.230Z,496
2016-02-21T08:56:50.202Z,564
2016-02-21T08:57:50.174Z,516
2016-02-21T08:58:50.177Z,516
2016-02-21T08:59:50.133Z,552
2016-02-21T09:00:50.103Z,512
2016-02-21T09:01:50.075Z,580
2016-02-21T09:02:50.047Z,580
2016-02-21T09:03:50.268Z,584
2016-02-21T09:04:50.005Z,500
2016-02-21T09:05:49.992Z,524
2016-02-21T09:06:49.963Z,528
2016-02-21T09:07:49.951Z,520
2016-02-21T09:08:49.907Z,668
2016-02-21T09:09:49.878Z,600
2016-02-21T09:10:49.880Z,548
2016-02-21T09:11:49.852Z,596
2016-02-21T09:12:49.807Z,500
2016-02-21T09:13:49.810Z,540
2016-02-21T09:14:49.782Z,652
2016-02-21T09:15:49.754Z,660
2016-02-21T09:16:49.725Z,636
2016-02-21T09:17:49.696Z,548
2016-02-21T09:18:49.667Z,632
2016-02-21T09:19:49.686Z,516
2016-02-21T09:20:49.626Z,568
2016-02-21T09:21:49.597Z,588
2016-02-21T09:22:49.585Z,684
2016-02-21T09:23:49.556Z,628
2016-02-21T09:24:49.542Z,736
2016-02-21T09:25:49.515Z,624
2016-02-21T09:26:49.502Z,632
2016-02-21T09:27:49.473Z,660
2016-02-21T09:28:49.460Z,684
2016-02-21T09:29:49.416Z,660
2016-02-21T09:30:49.388Z,628
2016-02-21T09:31:49.358Z,592
2016-02-21T09:32:49.346Z,672
2016-02-21T09:33:49.302Z,640
2016-02-21T09:34:49.289Z,608
2016-02-21T09:35:49.307Z,704
2016-02-21T09:36:49.263Z,640
2016-02-21T09:37:49.203Z,704
2016-02-21T09:38:49.190Z,636
2016-02-21T09:39:49.177Z,624
2016-02-21T09:40:49.148Z,760
2016-02-21T09:41:49.183Z,716
2016-02-21T09:42:49.091Z,688
2016-02-21T09:43:49.079Z,604
2016-02-21T09:44:49.081Z,600
2016-02-21T09:45:49.021Z,688
2016-02-21T09:46:49.024Z,576
2016-02-21T09:47:49.011Z,556
2016-02-21T09:48:48.952Z,520
2016-02-21T09:49:49.235Z,572
2016-02-21T09:50:48.894Z,548
2016-02-21T09:51:48.897Z,604
2016-02-21T09:52:48.853Z,600
2016-02-21T09:53:48.855Z,584
2016-02-21T09:54:48.953Z,608
2016-02-21T09:55:48.798Z,696
2016-02-21T09:56:48.770Z,776
2016-02-21T09:57:48.741Z,768
2016-02-21T09:58:48.713Z,896
2016-02-21T09:59:48.700Z,928
2016-02-21T10:00:48.672Z,1040
2016-02-21T10:01:48.689Z,1028
2016-02-21T10:02:48.630Z,1124
2016-02-21T10:03:48.616Z,1080
2016-02-21T10:04:48.620Z,984
2016-02-21T10:05:48.560Z,856
2016-02-21T10:06:48.563Z,776
2016-02-21T10:07:48.519Z,752
2016-02-21T10:08:48.521Z,892
2016-02-21T10:09:48.446Z,920
2016-02-21T10:10:48.433Z,844
2016-02-21T10:11:48.452Z,996
2016-02-21T10:12:48.377Z,1032
2016-02-21T10:13:48.378Z,1188
2016-02-21T10:14:48.335Z,956
2016-02-21T10:15:48.305Z,992
2016-02-21T10:16:48.324Z,1184
2016-02-21T10:17:48.265Z,1364
2016-02-21T10:18:48.251Z,1176
2016-02-21T10:19:48.223Z,1100
2016-02-21T10:20:48.210Z,1148
2016-02-21T10:21:48.182Z,976
2016-02-21T10:22:48.138Z,940
2016-02-21T10:23:48.140Z,864
2016-02-21T10:24:48.112Z,984
2016-02-21T10:25:48.082Z,1016
2016-02-21T10:26:48.054Z,1072
2016-02-21T10:27:48.026Z,1452
2016-02-21T10:28:48.045Z,1616
2016-02-21T10:29:48.000Z,1512
2016-02-21T10:30:47.956Z,1656
2016-02-21T10:31:47.928Z,1332
2016-02-21T10:32:47.930Z,1176
2016-02-21T10:33:47.901Z,1148
2016-02-21T10:34:47.873Z,1324
2016-02-21T10:35:47.845Z,1148
2016-02-21T10:36:47.675Z,1068
2016-02-21T10:37:47.834Z,1016
2016-02-21T10:38:47.774Z,960
2016-02-21T10:39:47.761Z,1124
2016-02-21T10:40:47.733Z,1288
2016-02-21T10:41:47.689Z,984
2016-02-21T10:42:47.691Z,980
2016-02-21T10:43:47.678Z,968
2016-02-21T10:44:47.618Z,1100
2016-02-21T10:45:47.621Z,968
2016-02-21T10:46:47.905Z,756
2016-02-21T10:47:47.580Z,840
2016-02-21T10:48:47.535Z,900
2016-02-21T10:49:47.507Z,844
2016-02-21T10:50:47.478Z,1020
2016-02-21T10:51:47.637Z,816
2016-02-21T10:52:47.437Z,876
2016-02-21T10:53:47.424Z,792
2016-02-21T10:54:47.411Z,752
2016-02-21T10:55:47.382Z,908
2016-02-21T10:56:47.338Z,940
2016-02-21T10:57:47.309Z,944
2016-02-21T10:58:47.312Z,880
2016-02-21T10:59:47.267Z,836
2016-02-21T11:00:47.240Z,884
2016-02-21T11:01:47.258Z,960
2016-02-21T11:02:47.214Z,920
2016-02-21T11:03:47.201Z,944
2016-02-21T11:04:47.172Z,1000
2016-02-21T11:05:47.128Z,1204
2016-02-21T11:06:47.115Z,1404
2016-02-21T11:07:47.117Z,1492
2016-02-21T11:08:47.073Z,1412
2016-02-21T11:09:47.076Z,1340
2016-02-21T11:10:47.016Z,1716
2016-02-21T11:11:46.988Z,1460
2016-02-21T11:12:46.958Z,1724
2016-02-21T11:13:46.961Z,1468
2016-02-21T11:14:46.918Z,1640
2016-02-21T11:15:46.905Z,1840
2016-02-21T11:16:46.877Z,1604
2016-02-21T11:17:46.864Z,1372
2016-02-21T11:18:46.819Z,1676
2016-02-21T11:19:46.807Z,1660
2016-02-21T11:20:46.777Z,1468
2016-02-21T11:21:46.749Z,1448
2016-02-21T11:22:46.721Z,1328
2016-02-21T11:23:46.707Z,1312
2016-02-21T11:24:46.663Z,1236
2016-02-21T11:25:46.648Z,1492
2016-02-21T11:26:46.619Z,1360
2016-02-21T11:27:46.654Z,968
2016-02-21T11:28:46.593Z,1156
2016-02-21T11:29:46.565Z,1108
2016-02-21T11:30:46.537Z,1124
2016-02-21T11:31:46.523Z,1124
2016-02-21T11:32:46.510Z,1140
2016-02-21T11:33:46.482Z,996
2016-02-21T11:34:46.641Z,1352
2016-02-21T11:35:46.409Z,1076
2016-02-21T11:36:46.395Z,920
2016-02-21T11:37:46.461Z,1244
2016-02-21T11:38:46.355Z,888
2016-02-21T11:39:46.326Z,1120
2016-02-21T11:40:46.297Z,1120
2016-02-21T11:41:46.284Z,1100
2016-02-21T11:42:46.287Z,1236
2016-02-21T11:43:46.259Z,976
2016-02-21T11:44:46.230Z,928
2016-02-21T11:45:46.217Z,1112
2016-02-21T11:46:46.172Z,1236
2016-02-21T11:47:46.144Z,1372
2016-02-21T11:48:46.366Z,1156
2016-02-21T11:49:46.088Z,1180
2016-02-21T11:50:46.058Z,968
2016-02-21T11:51:46.046Z,884
2016-02-21T11:52:46.049Z,920
2016-02-21T11:53:46.082Z,924
2016-02-21T11:54:45.976Z,1268
2016-02-21T11:55:45.932Z,1052
2016-02-21T11:56:45.934Z,1192
2016-02-21T11:57:45.903Z,908
2016-02-21T11:58:45.859Z,1012
2016-02-21T11:59:45.833Z,1060
2016-02-21T12:00:45.773Z,1228
2016-02-21T12:01:45.745Z,864
2016-02-21T12:02:45.720Z,968
2016-02-21T12:03:45.685Z,884
2016-02-21T12:04:45.683Z,784
2016-02-21T12:05:45.633Z,760
2016-02-21T12:06:45.600Z,700
2016-02-21T12:07:45.567Z,816
2016-02-21T12:08:45.567Z,904
2016-02-21T12:09:45.537Z,964
2016-02-21T12:10:45.522Z,992
2016-02-21T12:11:45.475Z,928
2016-02-21T12:12:45.462Z,912
2016-02-21T12:13:45.416Z,980
2016-02-21T12:14:45.419Z,956
2016-02-21T12:15:45.388Z,812
2016-02-21T12:16:45.360Z,1020
2016-02-21T12:17:45.314Z,856
2016-02-21T12:18:45.302Z,836
2016-02-21T12:19:45.272Z,760
2016-02-21T12:20:45.260Z,796
2016-02-21T12:21:45.232Z,772
2016-02-21T12:22:45.203Z,768
2016-02-21T12:23:45.175Z,640
2016-02-21T12:24:45.147Z,720
2016-02-21T12:25:45.133Z,904
2016-02-21T12:26:45.136Z,1056
2016-02-21T12:27:45.310Z,1112
2016-02-21T12:28:45.063Z,1152
2016-02-21T12:29:44.925Z,1064
2016-02-21T12:30:45.006Z,864
2016-02-21T12:31:44.993Z,696
2016-02-21T12:32:44.996Z,852
2016-02-21T12:33:44.967Z,912
2016-02-21T12:34:45.174Z,1056
2016-02-21T12:35:44.926Z,1132
2016-02-21T12:36:44.865Z,1272
2016-02-21T12:37:44.853Z,1060
2016-02-21T12:38:44.824Z,956
2016-02-21T12:39:44.937Z,884
2016-02-21T12:40:44.783Z,948
2016-02-21T12:41:44.770Z,948
2016-02-21T12:42:44.742Z,696
2016-02-21T12:43:44.712Z,704
2016-02-21T12:44:44.684Z,636
2016-02-21T12:45:44.656Z,572
2016-02-21T12:46:44.659Z,628
2016-02-21T12:47:44.614Z,668
2016-02-21T12:48:44.616Z,596
2016-02-21T12:49:44.588Z,616
2016-02-21T12:50:44.795Z,588
2016-02-21T12:51:44.531Z,660
2016-02-21T12:52:44.518Z,608
2016-02-21T12:53:44.490Z,512
2016-02-21T12:54:44.446Z,532
2016-02-21T12:55:44.416Z,504
2016-02-21T12:56:44.405Z,580
2016-02-21T12:57:44.391Z,592
2016-02-21T12:58:44.347Z,584
2016-02-21T12:59:44.350Z,696
2016-02-21T13:00:44.321Z,560
2016-02-21T13:01:44.308Z,544
2016-02-21T13:02:44.248Z,556
2016-02-21T13:03:44.235Z,452
2016-02-21T13:04:44.223Z,460
2016-02-21T13:05:44.179Z,404
2016-02-21T13:06:44.166Z,472
2016-02-21T13:07:44.168Z,440
2016-02-21T13:08:44.124Z,384
2016-02-21T13:09:44.096Z,340
2016-02-21T13:10:44.082Z,424
2016-02-21T13:11:44.054Z,488
2016-02-21T13:12:44.025Z,604
2016-02-21T13:13:43.997Z,604
2016-02-21T13:14:43.968Z,464
2016-02-21T13:15:43.956Z,316
2016-02-21T13:16:43.927Z,308
2016-02-21T13:17:43.898Z,400
2016-02-21T13:18:43.901Z,404
2016-02-21T13:19:43.872Z,376
2016-02-21T13:20:43.828Z,484
2016-02-21T13:21:43.815Z,444
2016-02-21T13:22:43.803Z,536
2016-02-21T13:23:43.758Z,572
2016-02-21T13:24:43.729Z,644
2016-02-21T13:25:43.717Z,836
2016-02-21T13:26:43.703Z,632
2016-02-21T13:27:43.675Z,592
2016-02-21T13:28:43.647Z,660
2016-02-21T13:29:43.619Z,708
2016-02-21T13:30:43.605Z,724
2016-02-21T13:31:43.576Z,780
2016-02-21T13:32:43.548Z,636
2016-02-21T13:33:43.535Z,620
2016-02-21T13:34:43.506Z,564
2016-02-21T13:35:43.540Z,600
2016-02-21T13:36:43.668Z,596
2016-02-21T13:37:43.437Z,532
2016-02-21T13:38:43.423Z,556
2016-02-21T13:39:43.379Z,608
2016-02-21T13:40:43.382Z,532
2016-02-21T13:41:43.369Z,560
2016-02-21T13:42:43.325Z,580
2016-02-21T13:43:43.295Z,556
2016-02-21T13:44:43.268Z,496
2016-02-21T13:45:43.239Z,528
2016-02-21T13:46:43.211Z,512
2016-02-21T13:47:43.197Z,396
2016-02-21T13:48:43.169Z,280
2016-02-21T13:49:43.156Z,248
2016-02-21T13:50:43.143Z,260
2016-02-21T13:51:43.099Z,340
2016-02-21T13:52:43.086Z,380
2016-02-21T13:53:43.057Z,392
2016-02-21T13:54:43.028Z,416
2016-02-21T13:55:43.000Z,368
2016-02-21T13:56:43.003Z,336
2016-02-21T13:57:42.974Z,352
2016-02-21T13:58:42.930Z,360
2016-02-21T13:59:42.916Z,532
2016-02-21T14:00:42.873Z,528
2016-02-21T14:01:42.860Z,588
2016-02-21T14:02:42.847Z,548
2016-02-21T14:03:42.835Z,652
2016-02-21T14:04:42.790Z,612
2016-02-21T14:05:42.793Z,580
2016-02-21T14:06:42.780Z,472
2016-02-21T14:07:42.720Z,568
2016-02-21T14:08:42.723Z,372
2016-02-21T14:09:42.679Z,404
2016-02-21T14:10:42.666Z,404